30 września 2022

Czas Kod Pogoda Temp. Widoczność Sufit Wiatr METAR/SPECI
04:00
V
4 °C 9 mi - 130° 130° 3 kt METAR CYHU 300800Z AUTO 13003KT 9SM CLR 04/03 A3039 RMK SLP292
03:00
V
4 °C 9 mi - 120° 120° 2 kt METAR CYHU 300700Z AUTO 12002KT 9SM CLR 04/04 A3039 RMK SLP293
02:00
V
5 °C 9 mi - 110° 110° 2 kt METAR CYHU 300600Z AUTO 11002KT 9SM CLR 05/04 A3039 RMK SLP293
01:00
V
5 °C 9 mi - Var 000° 0 kt METAR CYHU 300500Z AUTO 00000KT 9SM CLR 05/04 A3039 RMK SLP295
00:00
V
7 °C 9 mi - Var 000° 0 kt METAR CYHU 300400Z AUTO 00000KT 9SM CLR 07/05 A3040 RMK SLP298

29 września 2022

Czas Kod Pogoda Temp. Widoczność Sufit Wiatr METAR/SPECI
23:00
V
7 °C 9 mi - 190° 190° 3 kt METAR CYHU 300300Z AUTO 19003KT 9SM CLR 07/04 A3041 RMK SLP299
22:00
V
8 °C 9 mi - 180° 180° 4 kt METAR CYHU 300200Z AUTO 18004KT 9SM CLR 08/04 A3041 RMK SLP299
21:00
V
8 °C 9 mi - 190° 190° 4 kt METAR CYHU 300100Z AUTO 19004KT 9SM CLR 08/05 A3040 RMK SLP297
20:00
V
10 °C 9 mi - 190° 190° 3 kt METAR CYHU 300000Z AUTO 19003KT 9SM CLR 10/05 A3039 RMK SLP294
19:00
V
11 °C 9 mi - 220° 220° 5 kt METAR CYHU 292300Z AUTO 22005KT 9SM CLR 11/04 A3038 RMK SLP291
18:00
V
13 °C 9 mi - 220° 220° 5 kt METAR CYHU 292200Z AUTO 22005KT 9SM CLR 13/04 A3038 RMK SLP290
17:00
V
13 °C 9 mi - 200° 200° 5 kt METAR CYHU 292100Z AUTO 20005KT 9SM CLR 13/03 A3039 RMK SLP294
16:00
V
13 °C 9 mi - 190° 190° 8 kt METAR CYHU 292000Z AUTO 19008KT 170V240 9SM CLR 13/04 A3040 RMK SLP297
15:00
V
13 °C 9 mi - Var Var 5 kt METAR CYHU 291900Z AUTO VRB05KT 9SM CLR 13/03 A3041 RMK SLP300
14:00
V
12 °C 9 mi - 250° 250° 7 kt METAR CYHU 291800Z AUTO 25007KT 190V350 9SM FEW041 12/03 A3043 RMK SLP306
13:00
V
12 °C 9 mi 3.700 ft 250° 250° 6 kt METAR CYHU 291700Z AUTO 25006KT 200V310 9SM BKN037 12/03 A3044 RMK SLP311
12:00
V
11 °C 9 mi 3.500 ft 320° 320° 5 kt METAR CYHU 291600Z AUTO 32005KT 250V340 9SM BKN035 11/03 A3045 RMK SLP313
11:00
V
11 °C 9 mi 3.700 ft 300° 300° 6 kt METAR CYHU 291500Z AUTO 30006KT 270V010 9SM OVC037 11/03 A3045 RMK SLP315
10:00
V
10 °C 9 mi 4.100 ft 350° 350° 8 kt METAR CYHU 291400Z AUTO 35008KT 9SM OVC041 10/02 A3045 RMK SLP314
09:00
V
9 °C 9 mi 4.100 ft 330° 330° 6 kt METAR CYHU 291300Z AUTO 33006KT 290V350 9SM OVC041 09/04 A3044 RMK SLP310
08:00
V
8 °C 9 mi 4.700 ft 310° 310° 7 kt METAR CYHU 291200Z AUTO 31007KT 9SM OVC047 08/04 A3042 RMK SLP304
07:00
V
6 °C 9 mi - 320° 320° 5 kt METAR CYHU 291100Z AUTO 32005KT 9SM CLR 06/04 A3040 RMK SLP296
06:00
V
7 °C 9 mi - 320° 320° 7 kt METAR CYHU 291000Z AUTO 32007KT 9SM CLR 07/04 A3038 RMK ICE MISG SLP291
05:00
V
8 °C 9 mi - 320° 320° 7 kt METAR CYHU 290900Z AUTO 32007KT 9SM FEW046 08/04 A3036 RMK SLP283
04:00
V
10 °C 9 mi 4.400 ft 320° 320° 9 kt METAR CYHU 290800Z AUTO 32009KT 9SM OVC044 10/04 A3034 RMK SLP278
03:00
V
10 °C 9 mi 4.200 ft 340° 340° 9 - 15 kt METAR CYHU 290700Z AUTO 34009G15KT 9SM OVC042 10/04 A3034 RMK SLP276
02:00
V
11 °C 9 mi 4.100 ft 320° 320° 11 kt METAR CYHU 290600Z AUTO 32011KT 9SM OVC041 11/05 A3033 RMK SLP272
01:00
V
12 °C 9 mi 3.700 ft 320° 320° 9 kt METAR CYHU 290500Z AUTO 32009KT 9SM BKN037 OVC046 12/06 A3031 RMK SLP267
00:00
V
11 °C 9 mi 5.000 ft 340° 340° 5 kt METAR CYHU 290400Z AUTO 34005KT 9SM OVC050 11/07 A3030 RMK SLP262

28 września 2022

Czas Kod Pogoda Temp. Widoczność Sufit Wiatr METAR/SPECI
23:00
V
12 °C 9 mi 5.500 ft 330° 330° 5 kt METAR CYHU 290300Z AUTO 33005KT 9SM OVC055 12/07 A3028 RMK SLP256
22:00
V
12 °C 9 mi 5.500 ft 320° 320° 8 kt METAR CYHU 290200Z AUTO 32008KT 9SM OVC055 12/08 A3026 RMK SLP248
21:00
V
13 °C 9 mi 6.000 ft 320° 320° 12 kt METAR CYHU 290100Z AUTO 32012KT 9SM OVC060 13/08 A3023 RMK SLP240
20:00
V
14 °C 9 mi 6.000 ft 310° 310° 12 - 17 kt METAR CYHU 290000Z AUTO 31012G17KT 9SM OVC060 14/08 A3021 RMK SLP232
19:00
V
14 °C 9 mi 3.900 ft 320° 320° 10 - 15 kt METAR CYHU 282300Z AUTO 32010G15KT 9SM BKN039 OVC050 14/09 A3018 RMK SLP221
18:00
V
16 °C 9 mi 6.600 ft 300° 300° 10 kt METAR CYHU 282200Z AUTO 30010KT 9SM SCT047 BKN066 16/09 A3015 RMK SLP212
17:00
V
16 °C 9 mi 6.600 ft 280° 280° 9 - 15 kt METAR CYHU 282100Z AUTO 28009G15KT 9SM OVC066 16/09 A3013 RMK SLP206
16:00
V
17 °C 9 mi - 300° 300° 11 - 16 kt METAR CYHU 282000Z AUTO 30011G16KT 9SM FEW066 17/08 A3011 RMK SLP200 DENSITY ALT 100FT
15:00
V
17 °C 9 mi 6.000 ft 310° 310° 10 kt METAR CYHU 281900Z AUTO 31010KT 9SM SCT038 OVC060 17/09 A3010 RMK SLP195 DENSITY ALT 200FT
14:00
V
16 °C 9 mi 5.000 ft 340° 340° 8 kt METAR CYHU 281800Z AUTO 34008KT 9SM SCT043 BKN050 OVC060 16/10 A3009 RMK SLP191 DENSITY ALT 100FT
13:00
V
17 °C 9 mi 5.500 ft 340° 340° 7 kt METAR CYHU 281700Z AUTO 34007KT 300V360 9SM FEW031 OVC055 17/10 A3007 RMK SLP186 DENSITY ALT 200FT
12:00
V
16 °C 9 mi 4.000 ft 330° 330° 9 kt METAR CYHU 281600Z AUTO 33009KT 9SM SCT029 OVC040 16/11 A3005 RMK SLP180 DENSITY ALT 100FT
11:00
M
15 °C 9 mi 2.500 ft 330° 330° 13 kt METAR CYHU 281500Z AUTO 33013KT 9SM BKN025 BKN037 BKN050 15/11 A3004 RMK SLP174
10:09
V
14 °C 9 mi 3.600 ft 320° 320° 7 kt METAR CYHU 281409Z AUTO 32007KT 9SM BKN036 BKN055 OVC069 14/11 A3002 RMK SLP169
10:00
V
14 °C 9 mi 3.400 ft 330° 330° 6 kt METAR CYHU 281400Z AUTO 33006KT 9SM -RA OVC034 14/12 A3002 RMK SLP169
09:34
V
14 °C 9 mi 3.400 ft 320° 320° 8 kt METAR CYHU 281334Z AUTO 32008KT 9SM -RA OVC034 14/12 A3001 RMK SLP165
09:00
V
13 °C 7 mi 3.200 ft 310° 310° 5 kt METAR CYHU 281300Z AUTO 31005KT 7SM OVC032 13/12 A2999 RMK SLP160
08:14
V
13 °C 9 mi 3.000 ft 320° 320° 4 kt METAR CYHU 281214Z AUTO 32004KT 9SM BKN030 BKN035 OVC060 13/12 A2997 RMK SLP152
08:00
V
13 °C 9 mi 5.000 ft 340° 340° 4 kt METAR CYHU 281200Z AUTO 34004KT 9SM -RA FEW028 BKN050 OVC066 13/11 A2996 RMK SLP150
07:36
V
13 °C 9 mi 4.400 ft 310° 310° 5 kt METAR CYHU 281136Z AUTO 31005KT 9SM -RA BKN044 OVC055 13/11 A2996 RMK SLP147
07:00
V
12 °C 9 mi 3.700 ft 300° 300° 4 kt METAR CYHU 281100Z AUTO 30004KT 9SM OVC037 12/11 A2994 RMK SLP141
06:00
V
12 °C 9 mi 3.200 ft 290° 290° 3 kt METAR CYHU 281000Z AUTO 29003KT 9SM BKN032 BKN055 BKN089 OVC170 12/11 A2991 RMK SLP132
05:00
V
11 °C 9 mi 8.600 ft 280° 280° 4 kt METAR CYHU 280900Z AUTO 28004KT 9SM OVC086 11/11 A2989 RMK SLP125
Starsze dane

My i osoby trzecie śledzimy twoje zachowanie w internecie na naszej stronie za pomocą plików cookie. Jeśli kontynuujesz, zakładamy, że zgadzasz się z naszą polityką plików cookie. Dowiedz się więcej